createdAt,value
2018-04-29T00:01:37.589Z,12.28
2018-04-29T00:04:05.036Z,12.37
2018-04-29T00:06:32.494Z,12.42
2018-04-29T00:08:59.917Z,12.38
2018-04-29T00:11:27.411Z,12.14
2018-04-29T00:13:54.830Z,12.21
2018-04-29T00:16:22.322Z,12.13
2018-04-29T00:18:49.741Z,12.08
2018-04-29T00:21:17.202Z,11.91
2018-04-29T00:23:44.618Z,11.96
2018-04-29T00:26:12.146Z,12.01
2018-04-29T00:28:39.606Z,12.09
2018-04-29T00:31:07.074Z,11.88
2018-04-29T00:33:34.490Z,11.95
2018-04-29T00:36:01.916Z,12.04
2018-04-29T00:38:29.433Z,12.10
2018-04-29T00:40:56.858Z,11.92
2018-04-29T00:43:24.338Z,11.99
2018-04-29T00:45:51.760Z,11.80
2018-04-29T00:48:19.258Z,12.00
2018-04-29T00:50:46.682Z,12.15
2018-04-29T00:53:14.180Z,12.25
2018-04-29T00:55:41.561Z,12.01
2018-04-29T00:58:09.009Z,11.99
2018-04-29T01:00:36.438Z,11.99
2018-04-29T01:03:03.950Z,11.86
2018-04-29T01:05:31.454Z,11.99
2018-04-29T01:07:58.904Z,12.01
2018-04-29T01:10:26.321Z,12.02
2018-04-29T01:12:53.769Z,12.13
2018-04-29T01:15:21.186Z,12.27
2018-04-29T01:17:48.646Z,12.38
2018-04-29T01:20:16.058Z,12.33
2018-04-29T01:22:43.553Z,12.14
2018-04-29T01:25:11.016Z,11.90
2018-04-29T01:27:38.670Z,11.82
2018-04-29T01:30:06.130Z,11.89
2018-04-29T01:32:33.554Z,11.94
2018-04-29T01:35:01.047Z,11.96
2018-04-29T01:37:28.501Z,11.81
2018-04-29T01:39:56.063Z,11.93
2018-04-29T01:42:23.486Z,11.97
2018-04-29T01:44:50.934Z,11.97
2018-04-29T01:47:18.365Z,11.83
2018-04-29T01:49:45.810Z,11.83
2018-04-29T01:52:13.242Z,11.70
2018-04-29T01:54:40.686Z,11.71
2018-04-29T01:57:08.161Z,11.56
2018-04-29T01:59:35.657Z,11.54
2018-04-29T02:02:03.166Z,11.56
2018-04-29T02:04:30.614Z,11.35
2018-04-29T02:06:58.030Z,11.42
2018-04-29T02:09:25.498Z,11.33
2018-04-29T02:11:52.909Z,11.51
2018-04-29T02:14:20.362Z,11.52
2018-04-29T02:16:47.898Z,11.47
2018-04-29T02:19:15.306Z,11.54
2018-04-29T02:21:42.770Z,11.57
2018-04-29T02:24:10.181Z,11.62
2018-04-29T02:26:37.742Z,11.63
2018-04-29T02:29:05.153Z,11.69
2018-04-29T02:31:32.648Z,11.68
2018-04-29T02:34:00.074Z,11.68
2018-04-29T02:36:27.557Z,11.50
2018-04-29T02:38:54.982Z,11.31
2018-04-29T02:41:22.473Z,11.25
2018-04-29T02:43:49.894Z,11.30
2018-04-29T02:46:17.338Z,11.30
2018-04-29T02:48:44.842Z,11.27
2018-04-29T02:51:12.221Z,11.24
2018-04-29T02:53:39.641Z,11.27
2018-04-29T02:56:07.126Z,11.23
2018-04-29T02:58:34.575Z,11.09
2018-04-29T03:01:02.022Z,11.11
2018-04-29T03:03:30.397Z,11.16
2018-04-29T03:05:57.822Z,11.27
2018-04-29T03:08:25.261Z,11.16
2018-04-29T03:10:52.785Z,11.12
2018-04-29T03:13:20.226Z,11.11
2018-04-29T03:15:47.692Z,11.08
2018-04-29T03:18:15.145Z,11.13
2018-04-29T03:20:42.570Z,11.26
2018-04-29T03:23:10.064Z,11.40
2018-04-29T03:25:37.522Z,11.18
2018-04-29T03:28:04.989Z,11.25
2018-04-29T03:30:32.415Z,11.37
2018-04-29T03:32:59.871Z,11.52
2018-04-29T03:35:27.342Z,11.49
2018-04-29T03:37:54.769Z,11.53
2018-04-29T03:40:22.205Z,11.64
2018-04-29T03:42:49.714Z,11.59
2018-04-29T03:45:18.082Z,11.44
2018-04-29T03:47:45.507Z,11.39
2018-04-29T03:50:14.028Z,11.56
2018-04-29T03:52:41.449Z,11.55
2018-04-29T03:55:08.903Z,11.30
2018-04-29T03:57:48.189Z,11.35
2018-04-29T04:00:27.613Z,11.47
2018-04-29T04:03:06.828Z,11.48
2018-04-29T04:05:34.286Z,11.64
2018-04-29T04:08:01.714Z,11.71
2018-04-29T04:10:29.226Z,11.78
2018-04-29T04:12:57.571Z,11.78
2018-04-29T04:15:25.058Z,11.79
2018-04-29T04:17:52.504Z,11.85
2018-04-29T04:20:19.963Z,11.89
2018-04-29T04:22:47.413Z,11.90
2018-04-29T04:25:14.863Z,11.49
2018-04-29T04:27:42.277Z,11.58
2018-04-29T04:30:09.746Z,11.29
2018-04-29T04:32:37.161Z,11.28
2018-04-29T04:35:04.613Z,11.47
2018-04-29T04:37:32.157Z,11.76
2018-04-29T04:39:59.614Z,11.93
2018-04-29T04:42:27.069Z,12.18
2018-04-29T04:44:54.489Z,12.30
2018-04-29T04:47:21.933Z,12.34
2018-04-29T04:49:49.445Z,12.42
2018-04-29T04:52:16.889Z,12.42
2018-04-29T04:54:44.309Z,12.16
2018-04-29T04:57:11.814Z,12.40
2018-04-29T04:59:39.228Z,12.19
2018-04-29T05:02:06.734Z,12.32
2018-04-29T05:04:34.426Z,12.52
2018-04-29T05:07:01.951Z,12.78
2018-04-29T05:09:29.401Z,12.96
2018-04-29T05:11:56.821Z,12.88
2018-04-29T05:14:24.323Z,12.94
2018-04-29T05:16:51.773Z,13.05
2018-04-29T05:19:19.222Z,12.74
2018-04-29T05:21:46.645Z,12.76
2018-04-29T05:24:15.070Z,12.90
2018-04-29T05:26:42.508Z,13.04
2018-04-29T05:29:09.941Z,12.90
2018-04-29T05:31:37.367Z,12.93
2018-04-29T05:34:04.805Z,12.27
2018-04-29T05:36:32.258Z,12.50
2018-04-29T05:38:59.706Z,12.18
2018-04-29T05:41:27.164Z,12.27
2018-04-29T05:43:54.605Z,12.57
2018-04-29T05:46:22.963Z,12.88
2018-04-29T05:48:50.459Z,12.66
2018-04-29T05:51:20.441Z,12.73
2018-04-29T05:53:48.030Z,12.87
2018-04-29T05:56:15.454Z,12.93
2018-04-29T05:58:42.878Z,13.18
2018-04-29T06:01:10.318Z,13.37
2018-04-29T06:03:37.743Z,13.10
2018-04-29T06:06:05.194Z,13.25
2018-04-29T06:08:33.594Z,12.91
2018-04-29T06:11:01.034Z,12.68
2018-04-29T06:13:29.447Z,12.91
2018-04-29T06:15:56.914Z,13.14
2018-04-29T06:18:24.338Z,13.13
2018-04-29T06:20:51.781Z,13.52
2018-04-29T06:23:19.193Z,13.62
2018-04-29T06:25:46.710Z,14.00
2018-04-29T06:28:14.455Z,13.75
2018-04-29T06:30:41.897Z,13.46
2018-04-29T06:33:09.313Z,13.34
2018-04-29T06:35:36.764Z,13.32
2018-04-29T06:38:04.190Z,13.46
2018-04-29T06:40:31.654Z,13.82
2018-04-29T06:42:59.997Z,13.68
2018-04-29T06:45:27.418Z,13.88
2018-04-29T06:47:54.870Z,14.08
2018-04-29T06:50:22.283Z,14.15
2018-04-29T06:52:49.756Z,13.90
2018-04-29T06:55:18.130Z,13.76
2018-04-29T06:57:45.596Z,13.30
2018-04-29T07:00:13.046Z,13.17
2018-04-29T07:02:40.492Z,13.11
2018-04-29T07:05:07.914Z,12.90
2018-04-29T07:07:35.353Z,12.68
2018-04-29T07:10:02.875Z,13.20
2018-04-29T07:12:30.341Z,13.75
2018-04-29T07:14:57.799Z,13.96
2018-04-29T07:17:26.161Z,13.93
2018-04-29T07:19:53.594Z,13.94
2018-04-29T07:22:21.080Z,13.96
2018-04-29T07:24:48.501Z,13.88
2018-04-29T07:27:15.948Z,13.70
2018-04-29T07:29:43.438Z,13.06
2018-04-29T07:32:10.858Z,13.19
2018-04-29T07:34:38.297Z,13.14
2018-04-29T07:37:07.674Z,13.36
2018-04-29T07:39:35.230Z,13.27
2018-04-29T07:42:02.686Z,12.81
2018-04-29T07:44:30.132Z,12.66
2018-04-29T07:46:57.553Z,13.17
2018-04-29T07:49:25.069Z,13.34
2018-04-29T07:51:52.439Z,13.91
2018-04-29T07:54:19.890Z,14.72
2018-04-29T07:56:47.314Z,14.44
2018-04-29T07:59:14.762Z,14.06
2018-04-29T08:01:42.179Z,14.42
2018-04-29T08:04:09.699Z,14.77
2018-04-29T08:06:37.150Z,14.28
2018-04-29T08:09:04.610Z,14.04
2018-04-29T08:11:32.021Z,14.62
2018-04-29T08:13:59.514Z,14.90
2018-04-29T08:16:26.953Z,15.23
2018-04-29T08:18:54.434Z,14.70
2018-04-29T08:21:21.921Z,14.69
2018-04-29T08:23:49.368Z,14.85
2018-04-29T08:26:16.902Z,14.90
2018-04-29T08:28:44.362Z,14.77
2018-04-29T08:31:11.846Z,15.34
2018-04-29T08:33:39.270Z,15.56
2018-04-29T08:36:07.643Z,15.00
2018-04-29T08:38:35.076Z,14.08
2018-04-29T08:41:02.566Z,14.02
2018-04-29T08:43:30.024Z,14.30
2018-04-29T08:45:57.473Z,14.29
2018-04-29T08:48:24.944Z,14.28
2018-04-29T08:50:52.394Z,14.02
2018-04-29T08:53:19.813Z,14.45
2018-04-29T08:55:47.302Z,14.49
2018-04-29T08:58:14.729Z,14.34
2018-04-29T09:00:42.146Z,13.89
2018-04-29T09:03:09.595Z,13.79
2018-04-29T09:05:37.142Z,14.05
2018-04-29T09:08:04.585Z,13.94
2018-04-29T09:10:32.010Z,13.65
2018-04-29T09:12:59.513Z,14.09
2018-04-29T09:15:26.933Z,14.49
2018-04-29T09:17:54.384Z,14.32
2018-04-29T09:20:21.809Z,13.37
2018-04-29T09:22:49.253Z,13.62
2018-04-29T09:25:16.675Z,13.60
2018-04-29T09:27:44.150Z,12.78
2018-04-29T09:30:11.573Z,12.31
2018-04-29T09:32:39.030Z,12.66
2018-04-29T09:35:06.455Z,12.58
2018-04-29T09:37:33.898Z,12.92
2018-04-29T09:40:01.431Z,13.84
2018-04-29T09:42:28.877Z,14.38
2018-04-29T09:44:56.293Z,15.26
2018-04-29T09:47:24.702Z,15.19
2018-04-29T09:49:52.122Z,15.13
2018-04-29T09:52:19.583Z,14.57
2018-04-29T09:54:47.089Z,14.72
2018-04-29T09:57:14.563Z,14.69
2018-04-29T09:59:43.024Z,15.72
2018-04-29T10:02:11.379Z,15.53
2018-04-29T10:04:38.834Z,15.94
2018-04-29T10:07:06.261Z,15.42
2018-04-29T10:09:33.750Z,16.25
2018-04-29T10:12:01.138Z,15.19
2018-04-29T10:14:28.574Z,15.55
2018-04-29T10:16:56.174Z,15.48
2018-04-29T10:19:23.637Z,14.60
2018-04-29T10:21:51.066Z,14.22
2018-04-29T10:24:18.518Z,14.56
2018-04-29T10:26:45.943Z,14.41
2018-04-29T10:29:13.386Z,14.99
2018-04-29T10:31:40.805Z,14.39
2018-04-29T10:34:08.250Z,14.71
2018-04-29T10:36:35.683Z,15.01
2018-04-29T10:39:03.137Z,15.07
2018-04-29T10:41:30.554Z,15.43
2018-04-29T10:43:58.075Z,15.59
2018-04-29T10:46:25.490Z,15.83
2018-04-29T10:48:52.910Z,15.70
2018-04-29T10:51:20.449Z,15.94
2018-04-29T10:53:47.813Z,15.07
2018-04-29T10:56:15.266Z,15.21
2018-04-29T10:58:42.738Z,15.37
2018-04-29T11:01:10.257Z,14.41
2018-04-29T11:03:37.723Z,14.34
2018-04-29T11:06:05.280Z,14.49
2018-04-29T11:08:32.840Z,14.89
2018-04-29T11:11:00.286Z,15.57
2018-04-29T11:13:27.707Z,15.11
2018-04-29T11:15:55.206Z,14.91
2018-04-29T11:18:22.626Z,14.62
2018-04-29T11:20:50.098Z,14.94
2018-04-29T11:23:18.459Z,15.47
2018-04-29T11:25:45.913Z,15.57
2018-04-29T11:28:13.411Z,16.29
2018-04-29T11:30:40.865Z,16.54
2018-04-29T11:33:08.310Z,16.90
2018-04-29T11:35:35.725Z,16.18
2018-04-29T11:38:03.186Z,17.09
2018-04-29T11:40:30.647Z,17.18
2018-04-29T11:42:58.064Z,17.62
2018-04-29T11:45:25.477Z,17.25
2018-04-29T11:47:52.954Z,16.41
2018-04-29T11:50:20.425Z,16.31
2018-04-29T11:52:47.978Z,16.45
2018-04-29T11:55:15.406Z,17.10
2018-04-29T11:57:42.853Z,17.22
2018-04-29T12:00:10.282Z,17.61
2018-04-29T12:02:37.753Z,16.94
2018-04-29T12:05:05.178Z,16.10
2018-04-29T12:07:32.626Z,15.84
2018-04-29T12:10:00.065Z,15.47
2018-04-29T12:12:27.517Z,15.72
2018-04-29T12:14:54.939Z,15.03
2018-04-29T12:17:23.338Z,15.51
2018-04-29T12:19:50.794Z,15.91
2018-04-29T12:22:18.218Z,15.67
2018-04-29T12:24:45.672Z,15.16
2018-04-29T12:27:13.102Z,15.13
2018-04-29T12:29:40.561Z,14.41
2018-04-29T12:32:07.985Z,14.06
2018-04-29T12:34:35.434Z,14.19
2018-04-29T12:37:02.857Z,13.81
2018-04-29T12:39:30.301Z,13.36
2018-04-29T12:41:57.830Z,13.35
2018-04-29T12:44:25.286Z,12.75
2018-04-29T12:46:52.742Z,12.62
2018-04-29T12:49:20.298Z,12.55
2018-04-29T12:51:47.750Z,12.62
2018-04-29T12:54:15.206Z,12.36
2018-04-29T12:56:42.630Z,12.27
2018-04-29T12:59:10.054Z,12.46
2018-04-29T13:01:37.605Z,12.12
2018-04-29T13:04:05.025Z,12.21
2018-04-29T13:06:32.470Z,12.30
2018-04-29T13:08:59.890Z,12.55
2018-04-29T13:11:27.346Z,12.47
2018-04-29T13:13:54.780Z,12.30
2018-04-29T13:16:23.137Z,12.08
2018-04-29T13:18:50.602Z,12.26
2018-04-29T13:21:18.046Z,12.46
2018-04-29T13:23:45.465Z,12.50
2018-04-29T13:26:12.922Z,12.65
2018-04-29T13:28:40.345Z,12.71
2018-04-29T13:31:07.785Z,12.74
2018-04-29T13:33:35.230Z,12.87
2018-04-29T13:36:02.694Z,12.76
2018-04-29T13:38:30.141Z,12.71
2018-04-29T13:40:57.563Z,12.76
2018-04-29T13:43:25.070Z,12.32
2018-04-29T13:45:52.513Z,12.47
2018-04-29T13:48:19.978Z,12.56
2018-04-29T13:50:47.408Z,12.63
2018-04-29T13:53:14.865Z,12.53
2018-04-29T13:55:42.353Z,12.55
2018-04-29T13:58:10.722Z,12.42
2018-04-29T14:00:38.290Z,12.37
2018-04-29T14:03:05.735Z,12.48
2018-04-29T14:05:34.092Z,12.48
2018-04-29T14:08:01.569Z,12.55
2018-04-29T14:10:29.025Z,12.40
2018-04-29T14:12:57.427Z,11.98
2018-04-29T14:15:24.869Z,11.73
2018-04-29T14:17:52.294Z,12.05
2018-04-29T14:20:19.780Z,11.80
2018-04-29T14:22:47.197Z,11.27
2018-04-29T14:25:14.646Z,11.20
2018-04-29T14:27:43.086Z,11.36
2018-04-29T14:30:10.524Z,11.34
2018-04-29T14:32:37.954Z,11.03
2018-04-29T14:35:05.444Z,10.88
2018-04-29T14:37:32.857Z,10.84
2018-04-29T14:40:00.327Z,10.86
2018-04-29T14:42:27.741Z,10.78
2018-04-29T14:44:55.274Z,10.93
2018-04-29T14:47:22.717Z,10.74
2018-04-29T14:49:50.139Z,11.04
2018-04-29T14:52:17.577Z,10.89
2018-04-29T14:54:45.003Z,10.52
2018-04-29T14:57:12.445Z,10.76
2018-04-29T14:59:39.868Z,10.49
2018-04-29T15:02:07.326Z,10.36
2018-04-29T15:04:34.750Z,10.41
2018-04-29T15:07:02.190Z,10.52
2018-04-29T15:09:29.619Z,10.72
2018-04-29T15:11:57.073Z,10.75
2018-04-29T15:14:27.206Z,10.38
2018-04-29T15:16:54.654Z,10.28
2018-04-29T15:19:22.092Z,10.28
2018-04-29T15:21:49.585Z,10.35
2018-04-29T15:24:17.002Z,10.24
2018-04-29T15:26:44.422Z,10.26
2018-04-29T15:29:11.949Z,10.04
2018-04-29T15:31:39.372Z,10.11
2018-04-29T15:34:06.834Z,10.44
2018-04-29T15:36:34.250Z,10.46
2018-04-29T15:39:01.693Z,10.25
2018-04-29T15:41:29.109Z,9.99
2018-04-29T15:43:56.585Z,10.10
2018-04-29T15:46:24.077Z,9.98
2018-04-29T15:48:51.486Z,9.84
2018-04-29T15:51:18.902Z,9.91
2018-04-29T15:53:46.346Z,10.08
2018-04-29T15:56:13.870Z,10.24
2018-04-29T15:58:41.298Z,10.36
2018-04-29T16:01:08.778Z,10.83
2018-04-29T16:03:36.267Z,10.99
2018-04-29T16:06:03.706Z,11.36
2018-04-29T16:08:31.127Z,11.47
2018-04-29T16:10:58.578Z,11.72
2018-04-29T16:13:26.068Z,11.74
2018-04-29T16:15:53.506Z,11.51
2018-04-29T16:18:20.984Z,11.49
2018-04-29T16:20:48.425Z,11.44
2018-04-29T16:23:15.841Z,11.76
2018-04-29T16:25:43.289Z,11.93
2018-04-29T16:28:10.711Z,11.99
2018-04-29T16:30:38.168Z,12.33
2018-04-29T16:33:05.586Z,12.93
2018-04-29T16:35:33.082Z,13.04
2018-04-29T16:38:00.695Z,13.08
2018-04-29T16:40:28.070Z,12.83
2018-04-29T16:42:55.518Z,12.67
2018-04-29T16:45:22.933Z,12.65
2018-04-29T16:47:50.378Z,12.64
2018-04-29T16:50:17.850Z,12.73
2018-04-29T16:52:45.301Z,12.49
2018-04-29T16:55:12.722Z,12.46
2018-04-29T16:57:40.179Z,12.53
2018-04-29T17:00:07.601Z,12.77
2018-04-29T17:02:35.102Z,12.83
2018-04-29T17:05:02.513Z,12.99
2018-04-29T17:07:29.962Z,12.79
2018-04-29T17:09:58.351Z,13.03
2018-04-29T17:12:25.793Z,13.44
2018-04-29T17:14:53.220Z,13.63
2018-04-29T17:17:20.657Z,13.49
2018-04-29T17:19:48.079Z,13.29
2018-04-29T17:22:15.774Z,13.38
2018-04-29T17:24:43.237Z,13.53
2018-04-29T17:27:10.653Z,13.44
2018-04-29T17:29:38.099Z,13.79
2018-04-29T17:32:05.519Z,14.03
2018-04-29T17:34:32.957Z,14.15
2018-04-29T17:37:00.427Z,13.77
2018-04-29T17:39:27.881Z,13.76
2018-04-29T17:41:55.307Z,13.69
2018-04-29T17:44:22.785Z,13.87
2018-04-29T17:46:50.342Z,14.12
2018-04-29T17:49:18.694Z,13.72
2018-04-29T17:51:46.282Z,13.02
2018-04-29T17:54:13.742Z,12.90
2018-04-29T17:56:42.130Z,12.97
2018-04-29T17:59:09.582Z,12.89
2018-04-29T18:01:37.929Z,12.61
2018-04-29T18:04:05.406Z,12.45
2018-04-29T18:06:32.829Z,12.50
2018-04-29T18:09:00.298Z,12.58
2018-04-29T18:11:27.726Z,12.48
2018-04-29T18:13:55.149Z,12.53
2018-04-29T18:16:23.518Z,12.52
2018-04-29T18:18:51.853Z,12.30
2018-04-29T18:21:19.382Z,12.36
2018-04-29T18:23:46.756Z,12.19
2018-04-29T18:26:14.202Z,12.00
2018-04-29T18:28:41.634Z,11.80
2018-04-29T18:31:09.170Z,11.92
2018-04-29T18:33:36.733Z,11.97
2018-04-29T18:36:04.294Z,11.81
2018-04-29T18:38:31.723Z,11.78
2018-04-29T18:40:59.166Z,11.74
2018-04-29T18:43:26.591Z,11.71
2018-04-29T18:45:54.038Z,11.56
2018-04-29T18:48:21.479Z,11.51
2018-04-29T18:50:49.028Z,11.56
2018-04-29T18:53:16.383Z,11.43
2018-04-29T18:55:43.826Z,11.49
2018-04-29T18:58:11.248Z,11.28
2018-04-29T19:00:38.665Z,11.32
2018-04-29T19:03:06.112Z,11.57
2018-04-29T19:08:35.447Z,11.60
2018-04-29T19:11:02.913Z,11.63
2018-04-29T19:13:30.329Z,11.59
2018-04-29T19:15:57.746Z,11.53
2018-04-29T19:18:25.208Z,11.32
2018-04-29T19:20:52.632Z,11.45
2018-04-29T19:23:20.074Z,11.31
2018-04-29T19:25:47.501Z,11.14
2018-04-29T19:28:14.962Z,11.12
2018-04-29T19:30:42.438Z,11.10
2018-04-29T19:33:09.885Z,11.18
2018-04-29T19:35:37.315Z,11.19
2018-04-29T19:38:04.750Z,11.16
2018-04-29T19:40:32.261Z,11.16
2018-04-29T19:42:59.714Z,11.07
2018-04-29T19:45:27.182Z,11.24
2018-04-29T19:47:54.627Z,11.34
2018-04-29T19:50:22.055Z,11.19
2018-04-29T19:52:49.519Z,11.27
2018-04-29T19:55:16.942Z,11.21
2018-04-29T19:57:45.381Z,11.23
2018-04-29T20:00:12.833Z,11.25
2018-04-29T20:02:40.270Z,11.24
2018-04-29T20:05:08.625Z,11.28
2018-04-29T20:07:36.141Z,11.32
2018-04-29T20:10:03.586Z,11.23
2018-04-29T20:12:31.234Z,11.28
2018-04-29T20:14:59.006Z,11.40
2018-04-29T20:17:26.876Z,11.39
2018-04-29T20:19:54.679Z,11.30
2018-04-29T20:22:22.116Z,11.16
2018-04-29T20:24:49.564Z,11.14
2018-04-29T20:27:17.013Z,11.13
2018-04-29T20:29:44.458Z,11.15
2018-04-29T20:32:11.894Z,11.32
2018-04-29T20:34:41.326Z,11.39
2018-04-29T20:37:08.741Z,11.35
2018-04-29T20:39:36.246Z,11.45
2018-04-29T20:42:03.690Z,11.47
2018-04-29T20:44:31.105Z,11.50
2018-04-29T20:46:58.590Z,11.30
2018-04-29T20:49:26.010Z,11.26
2018-04-29T20:51:53.458Z,11.23
2018-04-29T20:54:20.993Z,11.40
2018-04-29T20:56:48.426Z,11.25
2018-04-29T20:59:15.846Z,11.30
2018-04-29T21:01:43.313Z,11.58
2018-04-29T21:04:11.698Z,11.46
2018-04-29T21:06:39.149Z,11.41
2018-04-29T21:09:06.573Z,11.42
2018-04-29T21:11:34.433Z,11.59
2018-04-29T21:14:01.857Z,11.57
2018-04-29T21:16:29.283Z,11.72
2018-04-29T21:18:56.742Z,11.46
2018-04-29T21:21:25.122Z,11.63
2018-04-29T21:23:52.573Z,11.58
2018-04-29T21:26:20.084Z,11.49
2018-04-29T21:28:47.526Z,11.40
2018-04-29T21:31:14.945Z,11.45
2018-04-29T21:33:42.407Z,11.43
2018-04-29T21:36:09.826Z,11.39
2018-04-29T21:38:37.265Z,11.47
2018-04-29T21:41:05.597Z,11.47
2018-04-29T21:43:33.081Z,11.34
2018-04-29T21:46:01.434Z,11.43
2018-04-29T21:48:28.926Z,11.46
2018-04-29T21:50:56.345Z,11.34
2018-04-29T21:53:23.813Z,11.34
2018-04-29T21:55:51.242Z,11.41
2018-04-29T21:58:18.749Z,11.39
2018-04-29T22:00:47.131Z,11.41
2018-04-29T22:03:14.586Z,11.38
2018-04-29T22:05:42.042Z,11.32
2018-04-29T22:08:09.530Z,11.33
2018-04-29T22:10:36.976Z,11.28
2018-04-29T22:13:04.452Z,11.24
2018-04-29T22:15:31.903Z,11.33
2018-04-29T22:17:59.361Z,11.34
2018-04-29T22:20:27.873Z,11.24
2018-04-29T22:22:55.303Z,11.15
2018-04-29T22:25:22.770Z,11.15
2018-04-29T22:27:50.222Z,11.21
2018-04-29T22:30:17.637Z,11.20
2018-04-29T22:32:46.010Z,11.18
2018-04-29T22:35:13.506Z,11.19
2018-04-29T22:37:40.986Z,11.09
2018-04-29T22:40:08.401Z,11.17
2018-04-29T22:42:35.855Z,11.18
2018-04-29T22:45:03.286Z,11.13
2018-04-29T22:47:30.733Z,11.13
2018-04-29T22:49:58.166Z,11.28
2018-04-29T22:52:26.534Z,11.27
2018-04-29T22:54:54.049Z,11.25
2018-04-29T22:57:21.577Z,11.27
2018-04-29T22:59:48.994Z,11.32
2018-04-29T23:02:16.426Z,11.39
2018-04-29T23:04:43.878Z,11.32
2018-04-29T23:07:11.314Z,11.40
2018-04-29T23:09:38.757Z,11.43
2018-04-29T23:12:06.250Z,11.31
2018-04-29T23:14:33.697Z,11.38
2018-04-29T23:17:01.126Z,11.45
2018-04-29T23:19:28.617Z,11.54
2018-04-29T23:21:56.185Z,11.34
2018-04-29T23:24:23.641Z,11.28
2018-04-29T23:26:54.025Z,11.24
2018-04-29T23:29:21.465Z,11.27
2018-04-29T23:31:48.978Z,11.46
2018-04-29T23:34:17.343Z,11.35
2018-04-29T23:36:44.766Z,11.48
2018-04-29T23:39:13.187Z,11.47
2018-04-29T23:41:40.606Z,11.51
2018-04-29T23:44:08.034Z,11.45
2018-04-29T23:46:35.498Z,11.49
2018-04-29T23:49:02.910Z,11.27
2018-04-29T23:51:30.358Z,11.26
2018-04-29T23:53:57.773Z,11.42
2018-04-29T23:56:25.230Z,11.48
2018-04-29T23:58:52.646Z,11.47
